sensor_id;sensor_type;location;lat;lon;timestamp;temperature;humidity
20349;DHT22;10332;50.208;18.988;2023-02-21T00:01:46;10.50;63.20
20349;DHT22;10332;50.208;18.988;2023-02-21T00:04:33;10.50;63.00
20349;DHT22;10332;50.208;18.988;2023-02-21T00:07:19;10.50;62.80
20349;DHT22;10332;50.208;18.988;2023-02-21T00:10:10;10.50;62.70
20349;DHT22;10332;50.208;18.988;2023-02-21T00:12:57;10.50;62.90
20349;DHT22;10332;50.208;18.988;2023-02-21T00:15:43;10.50;62.00
20349;DHT22;10332;50.208;18.988;2023-02-21T00:18:36;10.50;62.20
20349;DHT22;10332;50.208;18.988;2023-02-21T00:21:23;10.40;63.10
20349;DHT22;10332;50.208;18.988;2023-02-21T00:24:16;10.40;63.50
20349;DHT22;10332;50.208;18.988;2023-02-21T00:27:04;10.40;63.40
20349;DHT22;10332;50.208;18.988;2023-02-21T00:29:50;10.40;63.20
20349;DHT22;10332;50.208;18.988;2023-02-21T00:32:36;10.40;64.00
20349;DHT22;10332;50.208;18.988;2023-02-21T00:35:22;10.40;64.00
20349;DHT22;10332;50.208;18.988;2023-02-21T00:38:10;10.40;64.80
20349;DHT22;10332;50.208;18.988;2023-02-21T00:40:56;10.40;64.90
20349;DHT22;10332;50.208;18.988;2023-02-21T00:43:44;10.40;65.30
20349;DHT22;10332;50.208;18.988;2023-02-21T00:46:29;10.40;66.20
20349;DHT22;10332;50.208;18.988;2023-02-21T00:49:15;10.40;66.80
20349;DHT22;10332;50.208;18.988;2023-02-21T00:52:01;10.40;67.20
20349;DHT22;10332;50.208;18.988;2023-02-21T00:54:48;10.40;67.80
20349;DHT22;10332;50.208;18.988;2023-02-21T00:57:34;10.40;68.90
20349;DHT22;10332;50.208;18.988;2023-02-21T01:00:23;10.30;70.20
20349;DHT22;10332;50.208;18.988;2023-02-21T01:03:09;10.30;71.20
20349;DHT22;10332;50.208;18.988;2023-02-21T01:05:55;10.30;71.80
20349;DHT22;10332;50.208;18.988;2023-02-21T01:08:43;10.20;72.70
20349;DHT22;10332;50.208;18.988;2023-02-21T01:11:30;10.20;73.60
20349;DHT22;10332;50.208;18.988;2023-02-21T01:14:17;10.20;74.70
20349;DHT22;10332;50.208;18.988;2023-02-21T01:17:03;10.20;75.80
20349;DHT22;10332;50.208;18.988;2023-02-21T01:19:49;10.20;77.20
20349;DHT22;10332;50.208;18.988;2023-02-21T01:22:36;10.20;78.10
20349;DHT22;10332;50.208;18.988;2023-02-21T01:25:21;10.10;79.00
20349;DHT22;10332;50.208;18.988;2023-02-21T01:28:08;10.10;80.00
20349;DHT22;10332;50.208;18.988;2023-02-21T01:30:54;10.10;80.50
20349;DHT22;10332;50.208;18.988;2023-02-21T01:33:40;10.00;81.50
20349;DHT22;10332;50.208;18.988;2023-02-21T01:36:27;10.00;82.60
20349;DHT22;10332;50.208;18.988;2023-02-21T01:39:13;10.00;83.40
20349;DHT22;10332;50.208;18.988;2023-02-21T01:42:00;10.00;84.80
20349;DHT22;10332;50.208;18.988;2023-02-21T01:44:47;9.90;85.80
20349;DHT22;10332;50.208;18.988;2023-02-21T01:47:54;9.90;87.00
20349;DHT22;10332;50.208;18.988;2023-02-21T01:50:40;9.90;88.90
20349;DHT22;10332;50.208;18.988;2023-02-21T01:53:26;9.80;90.30
20349;DHT22;10332;50.208;18.988;2023-02-21T01:56:13;9.80;91.00
20349;DHT22;10332;50.208;18.988;2023-02-21T01:59:00;9.70;91.30
20349;DHT22;10332;50.208;18.988;2023-02-21T02:02:00;9.70;91.60
20349;DHT22;10332;50.208;18.988;2023-02-21T02:04:52;9.70;92.00
20349;DHT22;10332;50.208;18.988;2023-02-21T02:07:40;9.70;92.00
20349;DHT22;10332;50.208;18.988;2023-02-21T02:10:27;9.70;92.20
20349;DHT22;10332;50.208;18.988;2023-02-21T02:16:45;9.60;92.50
20349;DHT22;10332;50.208;18.988;2023-02-21T02:31:37;9.50;95.40
20349;DHT22;10332;50.208;18.988;2023-02-21T02:38:23;9.50;97.40
20349;DHT22;10332;50.208;18.988;2023-02-21T02:40:58;9.50;98.00
20349;DHT22;10332;50.208;18.988;2023-02-21T02:43:34;9.40;99.40
20349;DHT22;10332;50.208;18.988;2023-02-21T02:46:16;9.40;99.90
20349;DHT22;10332;50.208;18.988;2023-02-21T02:51:25;9.20;99.90
20349;DHT22;10332;50.208;18.988;2023-02-21T02:53:54;9.20;99.90
20349;DHT22;10332;50.208;18.988;2023-02-21T02:56:22;9.10;99.90
20349;DHT22;10332;50.208;18.988;2023-02-21T02:59:05;9.00;99.90
20349;DHT22;10332;50.208;18.988;2023-02-21T03:11:01;8.60;99.90
20349;DHT22;10332;50.208;18.988;2023-02-21T03:13:48;8.60;99.90
20349;DHT22;10332;50.208;18.988;2023-02-21T03:16:37;8.50;99.90
20349;DHT22;10332;50.208;18.988;2023-02-21T03:19:16;8.50;99.90
20349;DHT22;10332;50.208;18.988;2023-02-21T03:22:07;8.50;99.90
20349;DHT22;10332;50.208;18.988;2023-02-21T03:24:38;8.50;99.90
20349;DHT22;10332;50.208;18.988;2023-02-21T03:27:09;8.50;99.90
20349;DHT22;10332;50.208;18.988;2023-02-21T03:29:38;8.50;99.90
20349;DHT22;10332;50.208;18.988;2023-02-21T03:32:19;8.50;99.90
20349;DHT22;10332;50.208;18.988;2023-02-21T03:34:51;8.40;99.90
20349;DHT22;10332;50.208;18.988;2023-02-21T03:37:29;8.40;99.90
20349;DHT22;10332;50.208;18.988;2023-02-21T03:39:59;8.50;99.90
20349;DHT22;10332;50.208;18.988;2023-02-21T03:42:27;8.50;99.90
20349;DHT22;10332;50.208;18.988;2023-02-21T03:44:54;8.50;99.90
20349;DHT22;10332;50.208;18.988;2023-02-21T03:47:22;8.50;99.90
20349;DHT22;10332;50.208;18.988;2023-02-21T03:49:49;8.50;99.90
20349;DHT22;10332;50.208;18.988;2023-02-21T03:52:17;8.40;99.90
20349;DHT22;10332;50.208;18.988;2023-02-21T03:54:44;8.40;99.90
20349;DHT22;10332;50.208;18.988;2023-02-21T03:57:12;8.30;99.90
20349;DHT22;10332;50.208;18.988;2023-02-21T03:59:39;8.30;99.90
20349;DHT22;10332;50.208;18.988;2023-02-21T04:02:08;8.30;99.90
20349;DHT22;10332;50.208;18.988;2023-02-21T04:04:35;8.30;99.90
20349;DHT22;10332;50.208;18.988;2023-02-21T04:07:03;8.30;99.90
20349;DHT22;10332;50.208;18.988;2023-02-21T04:09:30;8.30;99.90
20349;DHT22;10332;50.208;18.988;2023-02-21T04:11:58;8.30;99.90
20349;DHT22;10332;50.208;18.988;2023-02-21T04:14:25;8.30;99.90
20349;DHT22;10332;50.208;18.988;2023-02-21T04:16:53;8.30;99.90
20349;DHT22;10332;50.208;18.988;2023-02-21T04:19:20;8.30;99.90
20349;DHT22;10332;50.208;18.988;2023-02-21T04:21:48;8.30;99.90
20349;DHT22;10332;50.208;18.988;2023-02-21T04:24:15;8.20;99.90
20349;DHT22;10332;50.208;18.988;2023-02-21T04:26:43;8.20;99.90
20349;DHT22;10332;50.208;18.988;2023-02-21T04:29:10;8.20;99.90
20349;DHT22;10332;50.208;18.988;2023-02-21T04:31:38;8.20;99.90
20349;DHT22;10332;50.208;18.988;2023-02-21T04:34:06;8.20;99.90
20349;DHT22;10332;50.208;18.988;2023-02-21T04:36:38;8.20;99.90
20349;DHT22;10332;50.208;18.988;2023-02-21T04:39:07;8.20;99.90
20349;DHT22;10332;50.208;18.988;2023-02-21T04:41:35;8.20;99.90
20349;DHT22;10332;50.208;18.988;2023-02-21T04:44:02;8.20;99.90
20349;DHT22;10332;50.208;18.988;2023-02-21T04:46:30;8.20;99.90
20349;DHT22;10332;50.208;18.988;2023-02-21T04:48:58;8.20;99.90
20349;DHT22;10332;50.208;18.988;2023-02-21T04:51:26;8.20;99.90
20349;DHT22;10332;50.208;18.988;2023-02-21T04:53:54;8.10;99.90
20349;DHT22;10332;50.208;18.988;2023-02-21T04:56:24;8.20;99.90
20349;DHT22;10332;50.208;18.988;2023-02-21T04:58:54;8.20;99.90
20349;DHT22;10332;50.208;18.988;2023-02-21T05:01:26;8.10;99.90
20349;DHT22;10332;50.208;18.988;2023-02-21T05:03:55;8.10;99.90
20349;DHT22;10332;50.208;18.988;2023-02-21T05:06:26;8.20;99.90
20349;DHT22;10332;50.208;18.988;2023-02-21T05:08:55;8.10;99.90
20349;DHT22;10332;50.208;18.988;2023-02-21T05:11:24;8.10;99.90
20349;DHT22;10332;50.208;18.988;2023-02-21T05:13:52;8.10;99.90
20349;DHT22;10332;50.208;18.988;2023-02-21T05:16:20;8.10;99.90
20349;DHT22;10332;50.208;18.988;2023-02-21T05:18:48;8.00;99.90
20349;DHT22;10332;50.208;18.988;2023-02-21T05:21:17;8.00;99.90
20349;DHT22;10332;50.208;18.988;2023-02-21T05:23:46;8.00;99.90
20349;DHT22;10332;50.208;18.988;2023-02-21T05:26:26;8.00;99.90
20349;DHT22;10332;50.208;18.988;2023-02-21T05:28:58;8.00;99.90
20349;DHT22;10332;50.208;18.988;2023-02-21T05:31:26;8.00;99.90
20349;DHT22;10332;50.208;18.988;2023-02-21T05:33:54;8.00;99.90
20349;DHT22;10332;50.208;18.988;2023-02-21T05:36:21;8.10;99.90
20349;DHT22;10332;50.208;18.988;2023-02-21T05:38:54;8.10;99.90
20349;DHT22;10332;50.208;18.988;2023-02-21T05:41:22;8.00;99.90
20349;DHT22;10332;50.208;18.988;2023-02-21T05:43:50;8.00;99.90
20349;DHT22;10332;50.208;18.988;2023-02-21T05:46:31;7.90;99.90
20349;DHT22;10332;50.208;18.988;2023-02-21T05:49:01;8.00;99.90
20349;DHT22;10332;50.208;18.988;2023-02-21T05:51:38;7.90;99.90
20349;DHT22;10332;50.208;18.988;2023-02-21T05:54:11;7.90;99.90
20349;DHT22;10332;50.208;18.988;2023-02-21T05:56:44;7.90;99.90
20349;DHT22;10332;50.208;18.988;2023-02-21T05:59:13;7.90;99.90
20349;DHT22;10332;50.208;18.988;2023-02-21T06:01:42;7.90;99.90
20349;DHT22;10332;50.208;18.988;2023-02-21T06:04:10;7.90;99.90
20349;DHT22;10332;50.208;18.988;2023-02-21T06:06:38;7.90;99.90
20349;DHT22;10332;50.208;18.988;2023-02-21T06:09:05;7.90;99.90
20349;DHT22;10332;50.208;18.988;2023-02-21T06:11:35;7.90;99.90
20349;DHT22;10332;50.208;18.988;2023-02-21T06:14:07;7.90;99.90
20349;DHT22;10332;50.208;18.988;2023-02-21T06:16:40;8.00;99.90
20349;DHT22;10332;50.208;18.988;2023-02-21T06:19:08;8.00;99.90
20349;DHT22;10332;50.208;18.988;2023-02-21T06:21:37;7.90;99.90
20349;DHT22;10332;50.208;18.988;2023-02-21T06:24:08;7.90;99.90
20349;DHT22;10332;50.208;18.988;2023-02-21T06:26:37;8.00;99.90
20349;DHT22;10332;50.208;18.988;2023-02-21T06:29:07;8.00;99.90
20349;DHT22;10332;50.208;18.988;2023-02-21T06:31:35;8.10;99.90
20349;DHT22;10332;50.208;18.988;2023-02-21T06:34:03;8.10;99.90
20349;DHT22;10332;50.208;18.988;2023-02-21T06:36:31;8.20;99.90
20349;DHT22;10332;50.208;18.988;2023-02-21T06:38:58;8.20;99.90
20349;DHT22;10332;50.208;18.988;2023-02-21T06:41:28;8.30;99.90
20349;DHT22;10332;50.208;18.988;2023-02-21T06:43:57;8.40;99.90
20349;DHT22;10332;50.208;18.988;2023-02-21T06:46:28;8.50;99.90
20349;DHT22;10332;50.208;18.988;2023-02-21T06:48:57;8.50;99.90
20349;DHT22;10332;50.208;18.988;2023-02-21T06:51:25;8.60;99.90
20349;DHT22;10332;50.208;18.988;2023-02-21T06:53:56;8.70;99.90
20349;DHT22;10332;50.208;18.988;2023-02-21T06:56:24;8.70;99.90
20349;DHT22;10332;50.208;18.988;2023-02-21T06:58:53;8.80;99.90
20349;DHT22;10332;50.208;18.988;2023-02-21T07:01:21;8.80;99.90
20349;DHT22;10332;50.208;18.988;2023-02-21T07:03:50;8.80;99.90
20349;DHT22;10332;50.208;18.988;2023-02-21T07:06:18;8.90;99.90
20349;DHT22;10332;50.208;18.988;2023-02-21T07:08:46;9.00;99.90
20349;DHT22;10332;50.208;18.988;2023-02-21T07:11:16;9.10;99.90
20349;DHT22;10332;50.208;18.988;2023-02-21T07:13:51;9.10;99.90
20349;DHT22;10332;50.208;18.988;2023-02-21T07:16:20;9.10;99.90
20349;DHT22;10332;50.208;18.988;2023-02-21T07:18:47;9.00;99.90
20349;DHT22;10332;50.208;18.988;2023-02-21T07:21:15;9.10;99.90
20349;DHT22;10332;50.208;18.988;2023-02-21T07:23:44;9.10;99.90
20349;DHT22;10332;50.208;18.988;2023-02-21T07:26:13;9.40;99.90
20349;DHT22;10332;50.208;18.988;2023-02-21T07:28:41;9.60;99.90
20349;DHT22;10332;50.208;18.988;2023-02-21T07:31:09;9.70;99.90
20349;DHT22;10332;50.208;18.988;2023-02-21T07:33:37;9.80;99.90
20349;DHT22;10332;50.208;18.988;2023-02-21T07:36:05;9.80;99.90
20349;DHT22;10332;50.208;18.988;2023-02-21T07:38:32;10.10;99.90
20349;DHT22;10332;50.208;18.988;2023-02-21T07:41:01;10.20;99.90
20349;DHT22;10332;50.208;18.988;2023-02-21T07:43:30;10.00;99.90
20349;DHT22;10332;50.208;18.988;2023-02-21T07:45:58;10.00;99.90
20349;DHT22;10332;50.208;18.988;2023-02-21T07:48:26;9.90;99.90
20349;DHT22;10332;50.208;18.988;2023-02-21T07:50:53;10.00;99.90
20349;DHT22;10332;50.208;18.988;2023-02-21T07:53:21;9.80;99.90
20349;DHT22;10332;50.208;18.988;2023-02-21T07:55:48;9.80;99.90
20349;DHT22;10332;50.208;18.988;2023-02-21T07:58:16;9.90;99.90
20349;DHT22;10332;50.208;18.988;2023-02-21T08:00:47;10.10;99.90
20349;DHT22;10332;50.208;18.988;2023-02-21T08:03:14;10.10;99.90
20349;DHT22;10332;50.208;18.988;2023-02-21T08:05:42;10.40;99.90
20349;DHT22;10332;50.208;18.988;2023-02-21T08:08:09;10.90;99.90
20349;DHT22;10332;50.208;18.988;2023-02-21T08:10:37;10.90;99.90
20349;DHT22;10332;50.208;18.988;2023-02-21T08:13:04;10.80;99.90
20349;DHT22;10332;50.208;18.988;2023-02-21T08:15:32;10.70;99.90
20349;DHT22;10332;50.208;18.988;2023-02-21T08:17:59;10.60;99.90
20349;DHT22;10332;50.208;18.988;2023-02-21T08:20:27;10.70;99.90
20349;DHT22;10332;50.208;18.988;2023-02-21T08:22:54;10.70;99.90
20349;DHT22;10332;50.208;18.988;2023-02-21T08:25:22;10.60;99.90
20349;DHT22;10332;50.208;18.988;2023-02-21T08:27:50;10.80;99.90
20349;DHT22;10332;50.208;18.988;2023-02-21T08:30:21;10.80;99.90
20349;DHT22;10332;50.208;18.988;2023-02-21T08:32:49;10.70;99.90
20349;DHT22;10332;50.208;18.988;2023-02-21T08:35:18;10.50;99.90
20349;DHT22;10332;50.208;18.988;2023-02-21T08:37:47;10.40;99.90
20349;DHT22;10332;50.208;18.988;2023-02-21T08:40:19;10.30;99.90
20349;DHT22;10332;50.208;18.988;2023-02-21T08:42:52;10.40;99.90
20349;DHT22;10332;50.208;18.988;2023-02-21T08:45:21;10.50;99.90
20349;DHT22;10332;50.208;18.988;2023-02-21T08:47:51;10.70;99.90
20349;DHT22;10332;50.208;18.988;2023-02-21T08:50:20;10.60;99.90
20349;DHT22;10332;50.208;18.988;2023-02-21T08:52:49;10.50;99.90
20349;DHT22;10332;50.208;18.988;2023-02-21T08:55:18;10.40;99.90
20349;DHT22;10332;50.208;18.988;2023-02-21T08:57:51;10.30;99.90
20349;DHT22;10332;50.208;18.988;2023-02-21T09:00:21;10.20;99.90
20349;DHT22;10332;50.208;18.988;2023-02-21T09:02:50;10.30;99.90
20349;DHT22;10332;50.208;18.988;2023-02-21T09:05:21;10.20;99.90
20349;DHT22;10332;50.208;18.988;2023-02-21T09:07:53;10.20;99.90
20349;DHT22;10332;50.208;18.988;2023-02-21T09:10:30;10.30;99.90
20349;DHT22;10332;50.208;18.988;2023-02-21T09:13:03;10.30;99.90
20349;DHT22;10332;50.208;18.988;2023-02-21T09:15:31;10.60;99.90
20349;DHT22;10332;50.208;18.988;2023-02-21T09:17:58;10.60;99.90
20349;DHT22;10332;50.208;18.988;2023-02-21T09:20:27;10.60;99.90
20349;DHT22;10332;50.208;18.988;2023-02-21T09:22:54;10.80;99.90
20349;DHT22;10332;50.208;18.988;2023-02-21T09:25:24;12.20;99.90
20349;DHT22;10332;50.208;18.988;2023-02-21T09:27:52;13.40;91.30
20349;DHT22;10332;50.208;18.988;2023-02-21T09:30:23;13.80;74.60
20349;DHT22;10332;50.208;18.988;2023-02-21T09:32:53;13.30;75.00
20349;DHT22;10332;50.208;18.988;2023-02-21T09:35:22;12.70;80.60
20349;DHT22;10332;50.208;18.988;2023-02-21T09:37:49;12.20;87.80
20349;DHT22;10332;50.208;18.988;2023-02-21T09:40:23;11.60;92.60
20349;DHT22;10332;50.208;18.988;2023-02-21T09:42:57;11.30;96.70
20349;DHT22;10332;50.208;18.988;2023-02-21T09:45:30;11.10;99.60
20349;DHT22;10332;50.208;18.988;2023-02-21T09:48:15;11.10;99.90
20349;DHT22;10332;50.208;18.988;2023-02-21T09:50:48;13.10;88.40
20349;DHT22;10332;50.208;18.988;2023-02-21T09:53:21;14.20;73.00
20349;DHT22;10332;50.208;18.988;2023-02-21T09:55:56;13.60;70.60
20349;DHT22;10332;50.208;18.988;2023-02-21T09:58:27;13.10;77.00
20349;DHT22;10332;50.208;18.988;2023-02-21T10:01:02;12.80;82.20
20349;DHT22;10332;50.208;18.988;2023-02-21T10:03:46;12.80;81.50
20349;DHT22;10332;50.208;18.988;2023-02-21T10:06:35;12.50;83.70
20349;DHT22;10332;50.208;18.988;2023-02-21T10:09:35;13.10;83.40
20349;DHT22;10332;50.208;18.988;2023-02-21T10:12:23;14.70;63.40
20349;DHT22;10332;50.208;18.988;2023-02-21T10:18:16;14.10;67.90
20349;DHT22;10332;50.208;18.988;2023-02-21T10:21:01;15.30;61.80
20349;DHT22;10332;50.208;18.988;2023-02-21T10:23:45;20.60;26.60
20349;DHT22;10332;50.208;18.988;2023-02-21T10:26:24;23.70;1.00
20349;DHT22;10332;50.208;18.988;2023-02-21T10:28:55;22.70;1.00
20349;DHT22;10332;50.208;18.988;2023-02-21T10:31:35;21.00;1.00
20349;DHT22;10332;50.208;18.988;2023-02-21T10:34:24;20.00;1.00
20349;DHT22;10332;50.208;18.988;2023-02-21T10:36:55;21.50;1.00
20349;DHT22;10332;50.208;18.988;2023-02-21T10:39:42;22.50;1.00
20349;DHT22;10332;50.208;18.988;2023-02-21T10:42:48;20.10;1.00
20349;DHT22;10332;50.208;18.988;2023-02-21T10:45:29;18.00;7.40
20349;DHT22;10332;50.208;18.988;2023-02-21T10:48:05;16.90;28.20
20349;DHT22;10332;50.208;18.988;2023-02-21T10:53:30;15.90;45.30
20349;DHT22;10332;50.208;18.988;2023-02-21T11:01:31;16.90;36.60
20349;DHT22;10332;50.208;18.988;2023-02-21T11:04:05;20.40;12.60
20349;DHT22;10332;50.208;18.988;2023-02-21T11:09:52;20.90;1.00
20349;DHT22;10332;50.208;18.988;2023-02-21T11:12:24;19.10;1.00
20349;DHT22;10332;50.208;18.988;2023-02-21T11:17:28;16.30;33.70
20349;DHT22;10332;50.208;18.988;2023-02-21T11:20:14;15.40;47.70
20349;DHT22;10332;50.208;18.988;2023-02-21T11:22:46;14.70;54.30
20349;DHT22;10332;50.208;18.988;2023-02-21T11:25:31;14.40;58.40
20349;DHT22;10332;50.208;18.988;2023-02-21T11:30:46;16.50;40.10
20349;DHT22;10332;50.208;18.988;2023-02-21T11:33:36;16.50;37.00
20349;DHT22;10332;50.208;18.988;2023-02-21T11:36:16;18.20;30.00
20349;DHT22;10332;50.208;18.988;2023-02-21T11:41:47;21.00;1.00
20349;DHT22;10332;50.208;18.988;2023-02-21T11:47:27;23.80;1.00
20349;DHT22;10332;50.208;18.988;2023-02-21T11:50:23;26.70;1.00
20349;DHT22;10332;50.208;18.988;2023-02-21T12:02:22;31.10;1.00
20349;DHT22;10332;50.208;18.988;2023-02-21T12:04:58;29.80;1.00
20349;DHT22;10332;50.208;18.988;2023-02-21T12:07:44;29.40;1.00
20349;DHT22;10332;50.208;18.988;2023-02-21T12:25:19;21.10;1.00
20349;DHT22;10332;50.208;18.988;2023-02-21T12:37:11;26.30;1.00
20349;DHT22;10332;50.208;18.988;2023-02-21T12:45:50;20.50;1.00
20349;DHT22;10332;50.208;18.988;2023-02-21T12:52:01;17.50;1.00
20349;DHT22;10332;50.208;18.988;2023-02-21T12:54:58;16.50;1.00
20349;DHT22;10332;50.208;18.988;2023-02-21T12:58:00;15.70;7.70
20349;DHT22;10332;50.208;18.988;2023-02-21T13:12:24;14.60;34.40
20349;DHT22;10332;50.208;18.988;2023-02-21T13:15:22;14.20;37.10
20349;DHT22;10332;50.208;18.988;2023-02-21T13:18:09;14.60;39.90
20349;DHT22;10332;50.208;18.988;2023-02-21T13:20:51;16.30;33.60
20349;DHT22;10332;50.208;18.988;2023-02-21T13:23:23;19.60;10.60
20349;DHT22;10332;50.208;18.988;2023-02-21T13:28:54;26.40;1.00
20349;DHT22;10332;50.208;18.988;2023-02-21T13:31:25;28.70;1.00
20349;DHT22;10332;50.208;18.988;2023-02-21T13:33:58;28.30;1.00
20349;DHT22;10332;50.208;18.988;2023-02-21T13:36:42;26.90;1.00
20349;DHT22;10332;50.208;18.988;2023-02-21T13:39:15;24.40;1.00
20349;DHT22;10332;50.208;18.988;2023-02-21T13:41:54;22.20;1.00
20349;DHT22;10332;50.208;18.988;2023-02-21T13:44:33;20.20;1.00
20349;DHT22;10332;50.208;18.988;2023-02-21T13:47:16;18.60;1.00
20349;DHT22;10332;50.208;18.988;2023-02-21T13:49:55;17.50;1.00
20349;DHT22;10332;50.208;18.988;2023-02-21T13:52:36;16.60;1.00
20349;DHT22;10332;50.208;18.988;2023-02-21T13:57:49;15.50;21.00
20349;DHT22;10332;50.208;18.988;2023-02-21T14:19:00;23.50;1.00
20349;DHT22;10332;50.208;18.988;2023-02-21T14:21:48;23.90;1.00
20349;DHT22;10332;50.208;18.988;2023-02-21T14:24:24;24.50;1.00
20349;DHT22;10332;50.208;18.988;2023-02-21T14:27:03;23.30;1.00
20349;DHT22;10332;50.208;18.988;2023-02-21T14:32:46;19.40;1.00
20349;DHT22;10332;50.208;18.988;2023-02-21T14:35:33;17.80;1.00
20349;DHT22;10332;50.208;18.988;2023-02-21T14:38:22;16.80;1.00
20349;DHT22;10332;50.208;18.988;2023-02-21T14:49:09;22.10;1.00
20349;DHT22;10332;50.208;18.988;2023-02-21T15:03:44;19.70;1.00
20349;DHT22;10332;50.208;18.988;2023-02-21T15:06:21;19.80;1.00
20349;DHT22;10332;50.208;18.988;2023-02-21T15:08:51;20.00;1.00
20349;DHT22;10332;50.208;18.988;2023-02-21T15:11:26;18.90;1.00
20349;DHT22;10332;50.208;18.988;2023-02-21T15:14:12;17.70;1.00
20349;DHT22;10332;50.208;18.988;2023-02-21T15:16:59;16.50;1.00
20349;DHT22;10332;50.208;18.988;2023-02-21T15:19:38;15.50;4.30
20349;DHT22;10332;50.208;18.988;2023-02-21T15:22:14;14.80;16.70
20349;DHT22;10332;50.208;18.988;2023-02-21T15:27:57;13.80;30.40
20349;DHT22;10332;50.208;18.988;2023-02-21T15:30:34;13.50;36.50
20349;DHT22;10332;50.208;18.988;2023-02-21T15:33:18;13.20;42.00
20349;DHT22;10332;50.208;18.988;2023-02-21T15:35:51;12.90;45.30
20349;DHT22;10332;50.208;18.988;2023-02-21T15:41:39;12.60;56.50
20349;DHT22;10332;50.208;18.988;2023-02-21T15:44:19;12.70;58.50
20349;DHT22;10332;50.208;18.988;2023-02-21T15:49:35;12.40;63.20
20349;DHT22;10332;50.208;18.988;2023-02-21T15:52:36;12.30;65.10
20349;DHT22;10332;50.208;18.988;2023-02-21T16:03:28;11.80;74.20
20349;DHT22;10332;50.208;18.988;2023-02-21T16:06:25;11.70;75.30
20349;DHT22;10332;50.208;18.988;2023-02-21T16:09:22;11.60;76.60
20349;DHT22;10332;50.208;18.988;2023-02-21T16:12:16;11.50;77.10
20349;DHT22;10332;50.208;18.988;2023-02-21T16:15:02;11.40;73.70
20349;DHT22;10332;50.208;18.988;2023-02-21T16:17:39;11.20;72.70
20349;DHT22;10332;50.208;18.988;2023-02-21T16:22:41;11.10;73.50
20349;DHT22;10332;50.208;18.988;2023-02-21T16:25:33;11.00;73.50
20349;DHT22;10332;50.208;18.988;2023-02-21T16:28:01;11.00;73.20
20349;DHT22;10332;50.208;18.988;2023-02-21T16:30:30;10.90;74.40
20349;DHT22;10332;50.208;18.988;2023-02-21T16:33:03;10.80;75.70
20349;DHT22;10332;50.208;18.988;2023-02-21T16:35:32;10.70;74.30
20349;DHT22;10332;50.208;18.988;2023-02-21T16:38:00;10.70;75.30
20349;DHT22;10332;50.208;18.988;2023-02-21T16:40:30;10.60;77.50
20349;DHT22;10332;50.208;18.988;2023-02-21T16:43:03;10.50;79.70
20349;DHT22;10332;50.208;18.988;2023-02-21T16:45:31;10.50;81.00
20349;DHT22;10332;50.208;18.988;2023-02-21T16:48:02;10.50;81.90
20349;DHT22;10332;50.208;18.988;2023-02-21T16:50:37;10.50;83.00
20349;DHT22;10332;50.208;18.988;2023-02-21T16:53:09;10.40;83.90
20349;DHT22;10332;50.208;18.988;2023-02-21T16:55:38;10.40;84.80
20349;DHT22;10332;50.208;18.988;2023-02-21T17:00:55;10.20;87.70
20349;DHT22;10332;50.208;18.988;2023-02-21T17:03:24;10.20;89.30
20349;DHT22;10332;50.208;18.988;2023-02-21T17:05:56;10.10;89.80
20349;DHT22;10332;50.208;18.988;2023-02-21T17:08:25;10.10;90.30
20349;DHT22;10332;50.208;18.988;2023-02-21T17:10:55;10.10;91.10
20349;DHT22;10332;50.208;18.988;2023-02-21T17:13:24;10.10;92.20
20349;DHT22;10332;50.208;18.988;2023-02-21T17:15:51;10.10;93.00
20349;DHT22;10332;50.208;18.988;2023-02-21T17:18:21;10.20;93.00
20349;DHT22;10332;50.208;18.988;2023-02-21T17:20:48;10.10;93.30
20349;DHT22;10332;50.208;18.988;2023-02-21T17:23:16;10.10;93.60
20349;DHT22;10332;50.208;18.988;2023-02-21T17:25:44;10.10;93.90
20349;DHT22;10332;50.208;18.988;2023-02-21T17:28:12;10.00;93.40
20349;DHT22;10332;50.208;18.988;2023-02-21T17:30:39;10.00;93.70
20349;DHT22;10332;50.208;18.988;2023-02-21T17:33:07;10.10;93.70
20349;DHT22;10332;50.208;18.988;2023-02-21T17:35:35;10.00;93.90
20349;DHT22;10332;50.208;18.988;2023-02-21T17:38:03;10.00;94.20
20349;DHT22;10332;50.208;18.988;2023-02-21T17:40:31;9.90;94.70
20349;DHT22;10332;50.208;18.988;2023-02-21T17:42:59;9.80;95.30
20349;DHT22;10332;50.208;18.988;2023-02-21T17:45:26;9.80;96.20
20349;DHT22;10332;50.208;18.988;2023-02-21T17:47:54;9.80;96.70
20349;DHT22;10332;50.208;18.988;2023-02-21T17:50:21;9.80;96.60
20349;DHT22;10332;50.208;18.988;2023-02-21T17:52:49;9.80;96.50
20349;DHT22;10332;50.208;18.988;2023-02-21T17:55:22;9.80;96.60
20349;DHT22;10332;50.208;18.988;2023-02-21T17:57:52;9.80;96.60
20349;DHT22;10332;50.208;18.988;2023-02-21T18:00:25;9.80;96.70
20349;DHT22;10332;50.208;18.988;2023-02-21T18:02:55;9.80;96.80
20349;DHT22;10332;50.208;18.988;2023-02-21T18:05:23;9.90;96.70
20349;DHT22;10332;50.208;18.988;2023-02-21T18:07:52;9.90;96.60
20349;DHT22;10332;50.208;18.988;2023-02-21T18:10:21;9.90;96.90
20349;DHT22;10332;50.208;18.988;2023-02-21T18:12:51;9.90;96.90
20349;DHT22;10332;50.208;18.988;2023-02-21T18:15:21;9.90;97.30
20349;DHT22;10332;50.208;18.988;2023-02-21T18:17:50;9.90;97.30
20349;DHT22;10332;50.208;18.988;2023-02-21T18:20:18;9.90;97.20
20349;DHT22;10332;50.208;18.988;2023-02-21T18:22:46;9.90;96.40
20349;DHT22;10332;50.208;18.988;2023-02-21T18:25:16;9.90;96.10
20349;DHT22;10332;50.208;18.988;2023-02-21T18:27:47;9.90;96.00
20349;DHT22;10332;50.208;18.988;2023-02-21T18:30:16;9.80;96.30
20349;DHT22;10332;50.208;18.988;2023-02-21T18:32:45;9.80;96.20
20349;DHT22;10332;50.208;18.988;2023-02-21T18:35:14;9.70;96.50
20349;DHT22;10332;50.208;18.988;2023-02-21T18:37:43;9.70;97.20
20349;DHT22;10332;50.208;18.988;2023-02-21T18:40:17;9.70;97.50
20349;DHT22;10332;50.208;18.988;2023-02-21T18:42:45;9.70;97.50
20349;DHT22;10332;50.208;18.988;2023-02-21T18:45:13;9.70;97.80
20349;DHT22;10332;50.208;18.988;2023-02-21T18:47:41;9.70;97.60
20349;DHT22;10332;50.208;18.988;2023-02-21T18:50:09;9.70;98.10
20349;DHT22;10332;50.208;18.988;2023-02-21T18:52:36;9.70;98.20
20349;DHT22;10332;50.208;18.988;2023-02-21T18:55:04;9.80;97.60
20349;DHT22;10332;50.208;18.988;2023-02-21T18:57:32;9.80;94.90
20349;DHT22;10332;50.208;18.988;2023-02-21T19:00:00;9.80;93.30
20349;DHT22;10332;50.208;18.988;2023-02-21T19:02:32;9.80;90.50
20349;DHT22;10332;50.208;18.988;2023-02-21T19:05:00;9.80;84.40
20349;DHT22;10332;50.208;18.988;2023-02-21T19:07:28;9.90;77.40
20349;DHT22;10332;50.208;18.988;2023-02-21T19:09:57;9.80;74.10
20349;DHT22;10332;50.208;18.988;2023-02-21T19:12:25;9.80;70.60
20349;DHT22;10332;50.208;18.988;2023-02-21T19:14:52;9.80;69.20